This is the latest recevied weather packets stored in our database for station/object OH2TH. If no packets are shown the sender has not sent any weather packets the latest 10 day(s).
| Time | Temp. | Humidity | Pressure | Rain* | Wind** | Luminosity | Snow |
|---|---|---|---|---|---|---|---|
| 1777918504 | 10° C | 86% | 100 hPa | 236.73 mm | - | - | - |
| 1777917604 | 10° C | 86% | 100 hPa | 236.73 mm | - | - | - |
| 1777916704 | 10.56° C | 85% | 100 hPa | 240.03 mm | - | - | - |
| 1777915803 | 10.56° C | 84% | 100 hPa | 240.03 mm | - | - | - |
| 1777914903 | 10.56° C | 83% | 100 hPa | 240.03 mm | - | - | - |
| 1777914003 | 10.56° C | 83% | 100 hPa | 240.03 mm | - | - | - |
| 1777913103 | 11.67° C | 82% | 100 hPa | 240.03 mm | - | - | - |
| 1777912203 | 11.67° C | 82% | 100 hPa | 240.03 mm | - | - | - |
| 1777911303 | 11.67° C | 81% | 100 hPa | 232.92 mm | - | - | - |
| 1777910402 | 11.67° C | 81% | 100 hPa | 232.92 mm | - | - | - |
| 1777909502 | 12.22° C | 78% | 100 hPa | 232.92 mm | - | - | - |
| 1777908602 | 12.22° C | 76% | 100 hPa | 232.92 mm | - | - | - |
| 1777907702 | 12.22° C | 76% | 100 hPa | 232.92 mm | - | - | - |
| 1777906802 | 12.22° C | 75% | 100 hPa | 232.92 mm | - | - | - |
| 1777905902 | 12.78° C | 74% | 100 hPa | 232.92 mm | - | - | - |
| 1777905001 | 12.22° C | 73% | 100 hPa | 232.92 mm | - | - | - |
| 1777904101 | 12.22° C | 74% | 100 hPa | 232.92 mm | - | - | - |
| 1777903201 | 12.22° C | 77% | 100 hPa | 232.92 mm | - | - | - |
| 1777902301 | 11.11° C | 79% | 100 hPa | 232.92 mm | - | - | - |
| 1777901400 | 11.11° C | 81% | 100 hPa | 232.92 mm | - | - | - |
| 1777900500 | 10° C | 84% | 100 hPa | 232.92 mm | - | - | - |
| 1777899605 | 10° C | 86% | 100 hPa | 232.92 mm | - | - | - |
| 1777898705 | 10° C | 85% | 100 hPa | 218.44 mm | - | - | - |
| 1777897804 | 9.44° C | 88% | 100 hPa | 218.44 mm | - | - | - |
| 1777896904 | 9.44° C | 87% | 100 hPa | 218.44 mm | - | - | - |
* Rain latest 24 hours (hover to see other rain measurements)
** Current wind speed in m/s (hover to see current wind gust speed)